createdAt,value
2023-05-20T00:00:44.384Z,101153.94
2023-05-20T00:01:24.515Z,101181.03
2023-05-20T00:02:04.376Z,101176.31
2023-05-20T00:02:45.538Z,101184.34
2023-05-20T00:03:26.495Z,101166.97
2023-05-20T00:04:06.640Z,101154.66
2023-05-20T00:04:48.500Z,101171.56
2023-05-20T00:05:30.552Z,101158.69
2023-05-20T00:06:11.409Z,101181.75
2023-05-20T00:06:51.504Z,101173.75
2023-05-20T00:07:31.406Z,101146.66
2023-05-20T00:08:12.555Z,101186.81
2023-05-20T00:08:52.361Z,101178.91
2023-05-20T00:09:32.581Z,101141.13
2023-05-20T00:10:13.436Z,101144.91
2023-05-20T00:10:53.507Z,101181.56
2023-05-20T00:11:34.417Z,101170.66
2023-05-20T00:12:14.476Z,101173.22
2023-05-20T00:12:54.410Z,101180.34
2023-05-20T00:13:36.122Z,101170.91
2023-05-20T00:14:16.374Z,101157.69
2023-05-20T00:14:56.454Z,101179.22
2023-05-20T00:15:37.622Z,101166.31
2023-05-20T00:16:18.508Z,101184.38
2023-05-20T00:16:59.487Z,101158.84
2023-05-20T00:17:39.543Z,101173.00
2023-05-20T00:18:20.394Z,101183.47
2023-05-20T00:19:00.631Z,101164.56
2023-05-20T00:19:40.387Z,101142.16
2023-05-20T00:20:20.952Z,101177.41
2023-05-20T00:21:02.358Z,101186.91
2023-05-20T00:21:42.476Z,101172.25
2023-05-20T00:22:22.425Z,101177.69
2023-05-20T00:23:02.824Z,101155.38
2023-05-20T00:23:42.401Z,101169.00
2023-05-20T00:24:22.467Z,101177.44
2023-05-20T00:25:03.428Z,101155.97
2023-05-20T00:25:43.466Z,101180.00
2023-05-20T00:26:23.390Z,101144.72
2023-05-20T00:27:03.520Z,101156.22
2023-05-20T00:27:43.449Z,101148.19
2023-05-20T00:28:23.886Z,101148.63
2023-05-20T00:29:05.378Z,101149.81
2023-05-20T00:29:46.240Z,101172.31
2023-05-20T00:30:27.381Z,101168.84
2023-05-20T00:31:07.746Z,101160.25
2023-05-20T00:31:48.449Z,101145.94
2023-05-20T00:32:28.596Z,101149.06
2023-05-20T00:33:09.431Z,101158.00
2023-05-20T00:33:49.582Z,101152.66
2023-05-20T00:34:29.391Z,101149.06
2023-05-20T00:35:11.446Z,101160.00
2023-05-20T00:35:52.363Z,101139.25
2023-05-20T00:36:32.485Z,101142.69
2023-05-20T00:37:13.377Z,101149.13
2023-05-20T00:37:53.466Z,101149.69
2023-05-20T00:38:33.395Z,101167.72
2023-05-20T00:39:13.486Z,101147.97
2023-05-20T00:39:53.357Z,101154.00
2023-05-20T00:40:33.447Z,101137.34
2023-05-20T00:41:14.387Z,101155.44
2023-05-20T00:41:54.507Z,101141.69
2023-05-20T00:42:35.428Z,101147.38
2023-05-20T00:43:16.454Z,101150.25
2023-05-20T00:44:01.406Z,101137.91
2023-05-20T00:44:41.464Z,101139.50
2023-05-20T00:45:22.362Z,101162.13
2023-05-20T00:46:02.547Z,101137.25
2023-05-20T00:46:43.358Z,101132.78
2023-05-20T00:47:25.455Z,101152.13
2023-05-20T00:48:08.488Z,101157.25
2023-05-20T00:48:50.456Z,101158.97
2023-05-20T00:49:31.415Z,101158.38
2023-05-20T00:50:13.553Z,101137.63
2023-05-20T00:50:55.386Z,101129.72
2023-05-20T00:51:35.542Z,101140.81
2023-05-20T00:52:15.377Z,101154.84
2023-05-20T00:52:55.528Z,101135.78
2023-05-20T00:53:36.345Z,101147.63
2023-05-20T00:54:17.439Z,101149.06
2023-05-20T00:54:58.374Z,101150.78
2023-05-20T00:55:39.486Z,101144.63
2023-05-20T00:56:21.344Z,101139.88
2023-05-20T00:57:03.031Z,101130.75
2023-05-20T00:57:44.354Z,101113.81
2023-05-20T00:58:24.426Z,101145.06
2023-05-20T00:59:05.354Z,101141.22
2023-05-20T00:59:46.483Z,101142.06
2023-05-20T01:00:26.360Z,101133.63
2023-05-20T01:01:06.789Z,101131.50
2023-05-20T01:01:48.510Z,101126.31
2023-05-20T01:02:42.420Z,101103.72
2023-05-20T01:03:36.429Z,101146.59
2023-05-20T01:04:30.322Z,101123.78
2023-05-20T01:05:25.319Z,101134.50
2023-05-20T01:06:06.336Z,101145.69
2023-05-20T01:06:46.429Z,101145.81
2023-05-20T01:07:27.327Z,101143.81
2023-05-20T01:08:07.887Z,101125.91
2023-05-20T01:08:48.374Z,101143.38
2023-05-20T01:09:28.444Z,101141.09
2023-05-20T01:10:09.357Z,101137.06
2023-05-20T01:10:53.345Z,101123.75
2023-05-20T01:11:40.399Z,101147.69
2023-05-20T01:12:38.351Z,101139.25
2023-05-20T01:13:17.432Z,101148.59
2023-05-20T01:14:13.318Z,101148.75
2023-05-20T01:15:05.700Z,101132.97
2023-05-20T01:15:53.422Z,101147.44
2023-05-20T01:16:29.596Z,101144.56
2023-05-20T01:17:19.333Z,101132.22
2023-05-20T01:17:58.022Z,101130.06
2023-05-20T01:18:47.367Z,101106.16
2023-05-20T01:19:45.034Z,101143.53
2023-05-20T01:20:32.395Z,101115.69
2023-05-20T01:21:13.324Z,101129.16
2023-05-20T01:22:08.332Z,101119.56
2023-05-20T01:23:10.326Z,101144.47
2023-05-20T01:24:04.327Z,101147.38
2023-05-20T01:25:00.331Z,101145.25
2023-05-20T01:25:54.305Z,101147.38
2023-05-20T01:26:35.327Z,101127.63
2023-05-20T01:27:20.516Z,101135.38
2023-05-20T01:28:04.297Z,101148.25
2023-05-20T01:28:45.431Z,101111.84
2023-05-20T01:29:26.293Z,101133.91
2023-05-20T01:30:06.577Z,101149.41
2023-05-20T01:30:54.359Z,101106.97
2023-05-20T01:31:47.412Z,101152.41
2023-05-20T01:32:57.382Z,101140.47
2023-05-20T01:33:51.280Z,101143.94
2023-05-20T01:34:46.300Z,101119.84
2023-05-20T01:35:40.309Z,101129.91
2023-05-20T01:36:35.317Z,101137.94
2023-05-20T01:37:16.310Z,101134.78
2023-05-20T01:37:57.395Z,101132.63
2023-05-20T01:38:38.317Z,101115.75
2023-05-20T01:39:19.396Z,101127.34
2023-05-20T01:40:01.301Z,101126.31
2023-05-20T01:40:41.902Z,101147.97
2023-05-20T01:41:23.303Z,101134.59
2023-05-20T01:42:03.408Z,101126.75
2023-05-20T01:42:44.337Z,101136.47
2023-05-20T01:43:25.524Z,101117.03
2023-05-20T01:44:06.309Z,101144.00
2023-05-20T01:44:46.382Z,101129.06
2023-05-20T01:45:27.308Z,101108.47
2023-05-20T01:46:07.581Z,101134.84
2023-05-20T01:46:47.296Z,101136.53
2023-05-20T01:47:27.434Z,101130.22
2023-05-20T01:48:09.441Z,101121.47
2023-05-20T01:48:49.369Z,101143.69
2023-05-20T01:49:30.302Z,101140.47
2023-05-20T01:50:10.445Z,101116.97
2023-05-20T01:50:51.323Z,101133.47
2023-05-20T01:51:33.557Z,101130.91
2023-05-20T01:52:13.272Z,101127.56
2023-05-20T01:52:53.413Z,101110.38
2023-05-20T01:53:34.322Z,101115.84
2023-05-20T01:54:14.386Z,101115.94
2023-05-20T01:54:57.296Z,101109.78
2023-05-20T01:55:37.469Z,101125.69
2023-05-20T01:56:17.277Z,101122.13
2023-05-20T01:56:57.393Z,101106.03
2023-05-20T01:57:38.308Z,101118.22
2023-05-20T01:58:18.439Z,101106.75
2023-05-20T01:58:58.294Z,101114.06
2023-05-20T01:59:38.403Z,101111.81
2023-05-20T02:00:19.265Z,101129.78
2023-05-20T02:01:00.106Z,101130.41
2023-05-20T02:01:41.311Z,101119.81
2023-05-20T02:02:53.443Z,101119.47
2023-05-20T02:03:33.286Z,101136.09
2023-05-20T02:04:13.302Z,101138.38
2023-05-20T02:04:48.232Z,101136.34
2023-05-20T02:05:36.457Z,101114.78
2023-05-20T02:06:10.452Z,101142.13
2023-05-20T02:06:57.283Z,101124.38
2023-05-20T02:07:31.451Z,101131.19
2023-05-20T02:08:18.276Z,101120.78
2023-05-20T02:08:52.381Z,101113.88
2023-05-20T02:09:33.306Z,101136.53
2023-05-20T02:10:14.407Z,101122.31
2023-05-20T02:10:57.275Z,101123.94
2023-05-20T02:11:37.384Z,101131.69
2023-05-20T02:12:23.277Z,101135.09
2023-05-20T02:13:03.336Z,101127.38
2023-05-20T02:13:44.301Z,101119.63
2023-05-20T02:14:24.409Z,101110.03
2023-05-20T02:15:05.301Z,101132.06
2023-05-20T02:15:48.391Z,101135.38
2023-05-20T02:16:28.376Z,101101.56
2023-05-20T02:17:10.364Z,101135.09
2023-05-20T02:17:51.316Z,101115.41
2023-05-20T02:18:32.653Z,101127.56
2023-05-20T02:19:13.385Z,101120.13
2023-05-20T02:19:54.378Z,101127.69
2023-05-20T02:20:35.299Z,101114.94
2023-05-20T02:21:15.383Z,101116.66
2023-05-20T02:21:57.263Z,101129.38
2023-05-20T02:22:37.364Z,101114.94
2023-05-20T02:23:18.256Z,101116.13
2023-05-20T02:23:58.386Z,101125.13
2023-05-20T02:24:38.310Z,101126.72
2023-05-20T02:25:18.362Z,101115.13
2023-05-20T02:25:59.281Z,101115.22
2023-05-20T02:26:40.396Z,101114.94
2023-05-20T02:27:20.324Z,101113.81
2023-05-20T02:28:00.689Z,101128.88
2023-05-20T02:28:40.300Z,101141.75
2023-05-20T02:29:22.144Z,101126.72
2023-05-20T02:30:03.260Z,101131.00
2023-05-20T02:30:47.032Z,101118.97
2023-05-20T02:31:28.290Z,101138.16
2023-05-20T02:32:09.009Z,101128.44
2023-05-20T02:32:50.283Z,101132.72
2023-05-20T02:33:30.572Z,101130.09
2023-05-20T02:34:11.382Z,101110.03
2023-05-20T02:34:51.373Z,101114.03
2023-05-20T02:35:32.356Z,101142.53
2023-05-20T02:36:12.417Z,101136.22
2023-05-20T02:36:52.348Z,101132.34
2023-05-20T02:37:32.405Z,101132.97
2023-05-20T02:38:13.265Z,101125.88
2023-05-20T02:38:56.641Z,101142.56
2023-05-20T02:39:36.341Z,101133.53
2023-05-20T02:40:17.619Z,101131.09
2023-05-20T02:40:57.254Z,101126.16
2023-05-20T02:41:37.364Z,101131.84
2023-05-20T02:42:18.292Z,101131.78
2023-05-20T02:42:58.365Z,101125.91
2023-05-20T02:43:40.239Z,101144.41
2023-05-20T02:44:20.496Z,101143.09
2023-05-20T02:45:03.252Z,101126.06
2023-05-20T02:45:43.620Z,101133.41
2023-05-20T02:46:26.343Z,101118.22
2023-05-20T02:47:06.357Z,101144.72
2023-05-20T02:47:47.337Z,101129.06
2023-05-20T02:48:27.341Z,101132.13
2023-05-20T02:49:08.283Z,101128.56
2023-05-20T02:49:48.378Z,101132.28
2023-05-20T02:50:29.254Z,101126.22
2023-05-20T02:51:09.349Z,101119.66
2023-05-20T02:51:49.241Z,101116.19
2023-05-20T02:52:29.342Z,101127.09
2023-05-20T02:53:09.301Z,101124.78
2023-05-20T02:53:49.341Z,101119.75
2023-05-20T02:54:30.278Z,101116.31
2023-05-20T02:55:11.366Z,101120.19
2023-05-20T02:55:56.269Z,101123.88
2023-05-20T02:56:36.479Z,101139.09
2023-05-20T02:57:17.223Z,101138.22
2023-05-20T02:57:57.309Z,101134.59
2023-05-20T02:58:38.250Z,101124.72
2023-05-20T02:59:18.350Z,101123.00
2023-05-20T02:59:59.252Z,101128.88
2023-05-20T03:00:41.083Z,101121.53
2023-05-20T03:01:22.274Z,101132.44
2023-05-20T03:02:03.285Z,101118.13
2023-05-20T03:02:44.283Z,101115.81
2023-05-20T03:03:24.320Z,101113.63
2023-05-20T03:04:05.351Z,101100.50
2023-05-20T03:04:47.357Z,101111.50
2023-05-20T03:05:28.208Z,101115.31
2023-05-20T03:06:08.312Z,101107.16
2023-05-20T03:06:51.250Z,101106.91
2023-05-20T03:07:31.689Z,101109.75
2023-05-20T03:08:18.432Z,101125.75
2023-05-20T03:08:58.679Z,101119.91
2023-05-20T03:09:38.243Z,101105.00
2023-05-20T03:10:18.319Z,101132.66
2023-05-20T03:10:59.206Z,101143.94
2023-05-20T03:11:39.333Z,101122.91
2023-05-20T03:12:19.237Z,101132.94
2023-05-20T03:12:59.344Z,101137.78
2023-05-20T03:13:39.247Z,101131.22
2023-05-20T03:14:19.317Z,101125.50
2023-05-20T03:15:02.287Z,101118.63
2023-05-20T03:15:42.409Z,101136.69
2023-05-20T03:16:23.245Z,101115.13
2023-05-20T03:17:03.319Z,101115.56
2023-05-20T03:17:43.279Z,101144.22
2023-05-20T03:18:23.326Z,101150.97
2023-05-20T03:19:04.298Z,101142.28
2023-05-20T03:19:44.365Z,101149.16
2023-05-20T03:20:25.323Z,101142.88
2023-05-20T03:21:05.320Z,101122.66
2023-05-20T03:21:45.231Z,101146.28
2023-05-20T03:22:25.312Z,101138.72
2023-05-20T03:23:07.210Z,101128.13
2023-05-20T03:23:48.606Z,101155.22
2023-05-20T03:24:30.212Z,101140.56
2023-05-20T03:25:12.477Z,101131.69
2023-05-20T03:25:53.231Z,101135.16
2023-05-20T03:26:37.522Z,101161.81
2023-05-20T03:27:18.236Z,101147.88
2023-05-20T03:28:01.073Z,101131.97
2023-05-20T03:28:43.195Z,101157.19
2023-05-20T03:29:23.310Z,101148.59
2023-05-20T03:30:03.191Z,101140.84
2023-05-20T03:30:43.426Z,101157.50
2023-05-20T03:31:24.207Z,101135.25
2023-05-20T03:32:04.317Z,101139.31
2023-05-20T03:32:44.254Z,101143.19
2023-05-20T03:33:26.291Z,101133.28
2023-05-20T03:34:07.199Z,101158.25
2023-05-20T03:34:47.490Z,101126.13
2023-05-20T03:35:28.240Z,101141.59
2023-05-20T03:36:08.288Z,101143.44
2023-05-20T03:36:48.219Z,101142.00
2023-05-20T03:37:28.281Z,101142.41
2023-05-20T03:38:08.244Z,101150.44
2023-05-20T03:38:48.483Z,101131.78
2023-05-20T03:39:29.200Z,101133.91
2023-05-20T03:40:10.470Z,101156.16
2023-05-20T03:40:50.220Z,101158.84
2023-05-20T03:41:30.454Z,101148.91
2023-05-20T03:42:10.276Z,101150.91
2023-05-20T03:42:51.968Z,101151.22
2023-05-20T03:43:33.219Z,101156.06
2023-05-20T03:44:27.185Z,101132.63
2023-05-20T03:45:22.199Z,101152.13
2023-05-20T03:46:16.312Z,101137.34
2023-05-20T03:47:10.233Z,101158.84
2023-05-20T03:48:04.295Z,101139.19
2023-05-20T03:48:58.186Z,101134.59
2023-05-20T03:49:52.176Z,101154.50
2023-05-20T03:50:46.204Z,101143.63
2023-05-20T03:51:40.192Z,101148.06
2023-05-20T03:52:28.207Z,101154.84
2023-05-20T03:53:02.333Z,101153.13
2023-05-20T03:53:49.185Z,101151.88
2023-05-20T03:54:23.337Z,101165.75
2023-05-20T03:55:11.197Z,101150.28
2023-05-20T03:55:45.464Z,101159.72
2023-05-20T03:56:33.171Z,101174.03
2023-05-20T03:57:07.284Z,101140.63
2023-05-20T03:57:47.221Z,101165.38
2023-05-20T03:58:29.230Z,101165.06
2023-05-20T03:59:09.194Z,101162.66
2023-05-20T03:59:49.322Z,101166.09
2023-05-20T04:00:29.175Z,101149.63
2023-05-20T04:01:09.422Z,101138.13
2023-05-20T04:01:49.244Z,101165.38
2023-05-20T04:02:29.410Z,101152.72
2023-05-20T04:03:10.314Z,101132.84
2023-05-20T04:03:51.308Z,101151.63
2023-05-20T04:04:31.209Z,101149.16
2023-05-20T04:05:12.297Z,101142.91
2023-05-20T04:05:52.195Z,101148.88
2023-05-20T04:06:32.963Z,101159.63
2023-05-20T04:07:14.183Z,101137.56
2023-05-20T04:07:54.290Z,101163.03
2023-05-20T04:08:34.216Z,101150.88
2023-05-20T04:09:14.342Z,101158.31
2023-05-20T04:09:54.175Z,101150.28
2023-05-20T04:10:34.301Z,101150.28
2023-05-20T04:11:14.190Z,101129.50
2023-05-20T04:11:54.342Z,101130.66
2023-05-20T04:12:38.190Z,101167.19
2023-05-20T04:13:18.358Z,101131.50
2023-05-20T04:13:58.198Z,101150.31
2023-05-20T04:14:38.953Z,101124.13
2023-05-20T04:15:20.155Z,101158.75
2023-05-20T04:16:01.996Z,101159.06
2023-05-20T04:16:44.185Z,101139.16
2023-05-20T04:17:24.288Z,101161.94
2023-05-20T04:18:04.191Z,101164.91
2023-05-20T04:18:46.015Z,101135.84
2023-05-20T04:19:26.289Z,101158.50
2023-05-20T04:20:07.636Z,101156.47
2023-05-20T04:20:48.168Z,101156.47
2023-05-20T04:21:28.298Z,101145.31
2023-05-20T04:22:09.168Z,101167.63
2023-05-20T04:22:49.258Z,101169.63
2023-05-20T04:23:30.157Z,101162.19
2023-05-20T04:24:10.261Z,101155.16
2023-05-20T04:24:50.232Z,101145.56
2023-05-20T04:25:30.303Z,101170.78
2023-05-20T04:26:10.181Z,101142.41
2023-05-20T04:26:50.256Z,101124.66
2023-05-20T04:27:31.169Z,101145.53
2023-05-20T04:28:14.197Z,101143.25
2023-05-20T04:28:57.194Z,101137.78
2023-05-20T04:29:37.236Z,101159.41
2023-05-20T04:30:18.208Z,101147.22
2023-05-20T04:31:08.308Z,101136.63
2023-05-20T04:31:49.227Z,101143.66
2023-05-20T04:32:29.345Z,101156.41
2023-05-20T04:33:10.272Z,101161.44
2023-05-20T04:33:50.475Z,101162.19
2023-05-20T04:34:33.171Z,101151.59
2023-05-20T04:35:14.010Z,101143.84
2023-05-20T04:35:55.151Z,101143.00
2023-05-20T04:36:38.215Z,101156.19
2023-05-20T04:37:20.165Z,101162.75
2023-05-20T04:38:01.070Z,101130.09
2023-05-20T04:38:42.183Z,101161.91
2023-05-20T04:39:22.823Z,101117.78
2023-05-20T04:40:04.146Z,101158.72
2023-05-20T04:40:44.223Z,101150.72
2023-05-20T04:41:25.150Z,101163.72
2023-05-20T04:42:05.306Z,101161.56
2023-05-20T04:42:46.139Z,101165.72
2023-05-20T04:43:26.375Z,101145.53
2023-05-20T04:44:08.193Z,101134.34
2023-05-20T04:45:02.159Z,101152.53
2023-05-20T04:45:56.164Z,101143.66
2023-05-20T04:46:43.239Z,101126.31
2023-05-20T04:47:17.241Z,101126.88
2023-05-20T04:48:04.281Z,101132.97
2023-05-20T04:48:39.384Z,101140.56
2023-05-20T04:49:26.139Z,101141.72
2023-05-20T04:50:00.298Z,101124.13
2023-05-20T04:50:48.156Z,101158.53
2023-05-20T04:51:22.376Z,101153.75
2023-05-20T04:52:03.205Z,101148.63
2023-05-20T04:52:47.226Z,101153.19
2023-05-20T04:53:30.147Z,101145.38
2023-05-20T04:54:10.254Z,101121.41
2023-05-20T04:54:50.121Z,101158.13
2023-05-20T04:55:30.835Z,101161.03
2023-05-20T04:56:12.179Z,101163.44
2023-05-20T04:56:52.285Z,101158.72
2023-05-20T04:57:32.166Z,101169.19
2023-05-20T04:58:15.780Z,101138.97
2023-05-20T04:58:56.185Z,101149.41
2023-05-20T04:59:36.519Z,101158.28
2023-05-20T05:00:19.150Z,101159.41
2023-05-20T05:01:01.505Z,101158.13
2023-05-20T05:01:43.180Z,101153.25
2023-05-20T05:02:23.213Z,101151.13
2023-05-20T05:03:03.219Z,101156.28
2023-05-20T05:03:43.251Z,101144.88
2023-05-20T05:04:24.148Z,101131.97
2023-05-20T05:05:04.337Z,101154.16
2023-05-20T05:05:45.142Z,101138.38
2023-05-20T05:06:25.233Z,101138.72
2023-05-20T05:07:05.137Z,101162.19
2023-05-20T05:07:45.438Z,101155.88
2023-05-20T05:08:26.174Z,101135.25
2023-05-20T05:09:06.226Z,101157.47
2023-05-20T05:09:47.148Z,101150.75
2023-05-20T05:10:27.236Z,101170.25
2023-05-20T05:11:07.132Z,101159.78
2023-05-20T05:11:47.252Z,101143.03
2023-05-20T05:12:28.153Z,101158.78
2023-05-20T05:13:08.239Z,101173.97
2023-05-20T05:13:48.168Z,101177.09
2023-05-20T05:14:28.245Z,101173.91
2023-05-20T05:15:08.141Z,101133.13
2023-05-20T05:15:48.257Z,101172.50
2023-05-20T05:16:29.239Z,101157.59
2023-05-20T05:17:09.221Z,101186.56
2023-05-20T05:17:50.154Z,101155.47
2023-05-20T05:18:30.298Z,101182.75
2023-05-20T05:19:10.200Z,101175.03
2023-05-20T05:19:50.274Z,101165.88
2023-05-20T05:20:31.114Z,101168.84
2023-05-20T05:21:13.196Z,101154.38
2023-05-20T05:21:55.123Z,101147.94
2023-05-20T05:22:36.943Z,101175.91
2023-05-20T05:23:18.126Z,101161.09
2023-05-20T05:23:58.512Z,101176.59
2023-05-20T05:24:39.150Z,101165.75
2023-05-20T05:25:20.215Z,101178.22
2023-05-20T05:26:01.120Z,101177.78
2023-05-20T05:26:41.217Z,101181.34
2023-05-20T05:27:21.108Z,101174.56
2023-05-20T05:28:01.235Z,101179.41
2023-05-20T05:28:42.100Z,101160.22
2023-05-20T05:29:22.235Z,101149.31
2023-05-20T05:30:02.151Z,101161.03
2023-05-20T05:30:42.258Z,101178.78
2023-05-20T05:31:22.130Z,101157.28
2023-05-20T05:32:02.313Z,101164.47
2023-05-20T05:32:44.266Z,101184.59
2023-05-20T05:33:24.329Z,101171.38
2023-05-20T05:34:04.141Z,101160.81
2023-05-20T05:34:44.203Z,101192.13
2023-05-20T05:35:24.165Z,101200.88
2023-05-20T05:36:05.018Z,101189.28
2023-05-20T05:36:47.131Z,101153.13
2023-05-20T05:37:27.208Z,101189.81
2023-05-20T05:38:07.110Z,101173.44
2023-05-20T05:38:47.200Z,101192.94
2023-05-20T05:39:27.121Z,101165.09
2023-05-20T05:40:08.059Z,101192.00
2023-05-20T05:40:49.125Z,101175.09
2023-05-20T05:41:29.227Z,101200.84
2023-05-20T05:42:10.154Z,101160.31
2023-05-20T05:42:50.209Z,101159.63
2023-05-20T05:43:30.100Z,101184.34
2023-05-20T05:44:11.207Z,101162.31
2023-05-20T05:44:52.166Z,101190.94
2023-05-20T05:45:32.405Z,101202.69
2023-05-20T05:46:13.146Z,101181.00
2023-05-20T05:46:53.343Z,101191.47
2023-05-20T05:47:39.125Z,101161.81
2023-05-20T05:48:19.229Z,101186.41
2023-05-20T05:49:00.163Z,101185.41
2023-05-20T05:49:41.238Z,101184.47
2023-05-20T05:50:21.138Z,101182.97
2023-05-20T05:51:01.250Z,101194.00
2023-05-20T05:51:41.259Z,101174.78
2023-05-20T05:52:21.948Z,101184.75
2023-05-20T05:53:03.092Z,101199.88
2023-05-20T05:53:51.178Z,101193.44
2023-05-20T05:54:32.106Z,101199.06
2023-05-20T05:55:13.277Z,101196.56
2023-05-20T05:55:54.107Z,101186.84
2023-05-20T05:56:34.202Z,101184.22
2023-05-20T05:57:16.110Z,101188.69
2023-05-20T05:57:56.261Z,101191.97
2023-05-20T05:58:36.112Z,101177.94
2023-05-20T05:59:16.261Z,101159.53
2023-05-20T05:59:56.085Z,101183.56
2023-05-20T06:00:36.221Z,101179.53
2023-05-20T06:01:17.195Z,101176.81
2023-05-20T06:02:00.269Z,101163.53
2023-05-20T06:02:43.220Z,101152.81
2023-05-20T06:03:23.556Z,101191.47
2023-05-20T06:04:04.189Z,101181.78
2023-05-20T06:04:44.181Z,101170.03
2023-05-20T06:05:26.319Z,101169.50
2023-05-20T06:06:08.571Z,101185.03
2023-05-20T06:06:50.095Z,101161.31
2023-05-20T06:07:30.200Z,101198.72
2023-05-20T06:08:11.133Z,101168.16
2023-05-20T06:08:51.205Z,101170.13
2023-05-20T06:09:32.073Z,101179.16
2023-05-20T06:10:13.198Z,101164.38
2023-05-20T06:10:57.070Z,101182.31
2023-05-20T06:11:42.292Z,101168.41
2023-05-20T06:12:24.060Z,101166.38
2023-05-20T06:13:21.102Z,101159.72
2023-05-20T06:14:18.170Z,101176.28
2023-05-20T06:15:15.093Z,101176.84
2023-05-20T06:16:11.124Z,101178.72
2023-05-20T06:17:05.200Z,101179.16
2023-05-20T06:17:59.109Z,101160.47
2023-05-20T06:18:42.140Z,101171.78
2023-05-20T06:19:22.263Z,101177.94
2023-05-20T06:20:02.094Z,101148.88
2023-05-20T06:20:43.170Z,101165.81
2023-05-20T06:21:25.147Z,101163.19
2023-05-20T06:22:11.298Z,101173.09
2023-05-20T06:22:51.071Z,101175.22
2023-05-20T06:23:33.937Z,101156.59
2023-05-20T06:24:38.087Z,101179.56
2023-05-20T06:25:32.293Z,101183.09
2023-05-20T06:26:26.073Z,101168.03
2023-05-20T06:27:20.092Z,101159.34
2023-05-20T06:28:19.190Z,101178.41
2023-05-20T06:29:15.196Z,101184.25
2023-05-20T06:30:05.586Z,101183.09
2023-05-20T06:30:39.228Z,101169.44
2023-05-20T06:31:26.122Z,101183.47
2023-05-20T06:32:00.226Z,101177.53
2023-05-20T06:32:48.093Z,101168.25
2023-05-20T06:33:22.200Z,101169.06
2023-05-20T06:34:11.263Z,101170.16
2023-05-20T06:34:47.173Z,101168.44
2023-05-20T06:35:28.129Z,101167.41
2023-05-20T06:36:08.265Z,101173.69
2023-05-20T06:36:49.090Z,101167.72
2023-05-20T06:37:29.252Z,101169.06
2023-05-20T06:38:10.120Z,101168.22
2023-05-20T06:38:50.130Z,101153.44
2023-05-20T06:39:30.092Z,101160.44
2023-05-20T06:40:14.230Z,101162.28
2023-05-20T06:40:58.119Z,101161.63
2023-05-20T06:41:38.206Z,101140.16
2023-05-20T06:42:18.059Z,101145.16
2023-05-20T06:42:58.175Z,101155.31
2023-05-20T06:43:40.114Z,101155.88
2023-05-20T06:44:20.191Z,101161.19
2023-05-20T06:45:02.996Z,101155.56
2023-05-20T06:45:43.224Z,101140.72
2023-05-20T06:46:23.104Z,101149.78
2023-05-20T06:47:03.323Z,101158.44
2023-05-20T06:47:44.138Z,101161.59
2023-05-20T06:48:24.202Z,101140.06
2023-05-20T06:49:08.080Z,101159.47
2023-05-20T06:49:52.167Z,101150.41
2023-05-20T06:50:32.070Z,101151.09
2023-05-20T06:51:15.183Z,101156.16
2023-05-20T06:51:58.163Z,101140.16
2023-05-20T06:52:38.132Z,101155.19
2023-05-20T06:53:22.819Z,101147.44
2023-05-20T06:54:03.180Z,101132.22
2023-05-20T06:54:48.084Z,101161.91
2023-05-20T06:55:28.163Z,101159.94
2023-05-20T06:56:09.078Z,101154.81
2023-05-20T06:56:49.154Z,101151.22
2023-05-20T06:57:30.051Z,101162.53
2023-05-20T06:58:10.119Z,101168.38
2023-05-20T06:58:50.073Z,101142.69
2023-05-20T06:59:30.136Z,101163.22
2023-05-20T07:00:12.056Z,101159.81
2023-05-20T07:00:53.294Z,101152.91
2023-05-20T07:01:37.098Z,101166.97
2023-05-20T07:02:18.153Z,101160.78
2023-05-20T07:03:00.453Z,101155.66
2023-05-20T07:03:41.265Z,101159.69
2023-05-20T07:04:21.253Z,101146.34
2023-05-20T07:05:11.751Z,101152.97
2023-05-20T07:05:54.035Z,101152.97
2023-05-20T07:06:35.298Z,101137.28
2023-05-20T07:07:18.059Z,101154.78
2023-05-20T07:08:05.270Z,101162.44
2023-05-20T07:09:02.046Z,101166.88
2023-05-20T07:09:57.037Z,101167.91
2023-05-20T07:10:54.019Z,101152.22
2023-05-20T07:11:41.181Z,101134.72
2023-05-20T07:12:23.576Z,101132.59
2023-05-20T07:13:04.166Z,101152.34
2023-05-20T07:13:46.085Z,101159.19
2023-05-20T07:14:28.132Z,101147.47
2023-05-20T07:15:09.043Z,101165.56
2023-05-20T07:16:01.072Z,101152.22
2023-05-20T07:16:41.104Z,101162.13
2023-05-20T07:17:21.176Z,101149.41
2023-05-20T07:18:02.162Z,101164.22
2023-05-20T07:18:42.184Z,101159.31
2023-05-20T07:19:23.098Z,101159.16
2023-05-20T07:20:04.320Z,101158.38
2023-05-20T07:20:45.036Z,101154.56
2023-05-20T07:21:25.090Z,101145.00
2023-05-20T07:22:06.038Z,101156.03
2023-05-20T07:22:46.369Z,101159.63
2023-05-20T07:23:26.138Z,101148.53
2023-05-20T07:24:06.378Z,101156.34
2023-05-20T07:24:46.051Z,101139.03
2023-05-20T07:25:26.215Z,101147.91
2023-05-20T07:26:07.241Z,101155.03
2023-05-20T07:26:47.238Z,101148.69
2023-05-20T07:27:27.026Z,101162.44
2023-05-20T07:28:07.324Z,101160.03
2023-05-20T07:28:47.066Z,101150.88
2023-05-20T07:29:29.374Z,101160.31
2023-05-20T07:30:10.075Z,101164.16
2023-05-20T07:30:50.533Z,101158.16
2023-05-20T07:31:31.054Z,101159.88
2023-05-20T07:32:12.698Z,101159.31
2023-05-20T07:32:53.138Z,101160.88
2023-05-20T07:33:33.178Z,101163.28
2023-05-20T07:34:14.016Z,101164.88
2023-05-20T07:34:54.187Z,101150.88
2023-05-20T07:35:38.533Z,101166.59
2023-05-20T07:36:22.809Z,101159.47
2023-05-20T07:37:04.029Z,101165.91
2023-05-20T07:37:44.100Z,101159.06
2023-05-20T07:38:24.999Z,101138.19
2023-05-20T07:39:12.340Z,101148.31
2023-05-20T07:39:55.054Z,101166.91
2023-05-20T07:40:36.870Z,101156.97
2023-05-20T07:41:18.159Z,101159.31
2023-05-20T07:41:58.109Z,101156.28
2023-05-20T07:42:39.082Z,101158.63
2023-05-20T07:43:20.171Z,101154.22
2023-05-20T07:44:01.243Z,101163.53
2023-05-20T07:44:41.108Z,101155.72
2023-05-20T07:45:24.973Z,101156.09
2023-05-20T07:46:05.174Z,101154.38
2023-05-20T07:47:00.561Z,101151.63
2023-05-20T07:47:45.404Z,101134.16
2023-05-20T07:48:25.062Z,101121.81
2023-05-20T07:49:07.575Z,101139.00
2023-05-20T07:49:57.036Z,101129.63
2023-05-20T07:50:37.093Z,101150.19
2023-05-20T07:51:18.018Z,101128.25
2023-05-20T07:52:06.012Z,101143.16
2023-05-20T07:53:02.335Z,101149.16
2023-05-20T07:53:56.034Z,101148.53
2023-05-20T07:54:51.014Z,101152.19
2023-05-20T07:55:47.992Z,101155.66
2023-05-20T07:56:42.047Z,101120.97
2023-05-20T07:57:29.022Z,101154.78
2023-05-20T07:58:03.191Z,101145.47
2023-05-20T07:58:50.029Z,101113.22
2023-05-20T07:59:26.205Z,101154.16
2023-05-20T08:00:14.999Z,101134.00
2023-05-20T08:00:49.073Z,101150.09
2023-05-20T08:01:37.001Z,101141.19